Aviation Digital Data Service (ADDS)

Output produced by METARs form (1535 UTC 20 March 2019)
found at http://www.aviationweather.gov/metar/data/
 
METAR text: LXGB 201450Z 08022KT 9999 FEW014 SCT032 17/09 Q1024 BLU TEMPO 10022G32KT BLU
Conditions at: LXGB (GIBRALTAR (CIV/M, GI) observed 1450 UTC 20 March 2019
Temperature: 17.0°C (63°F)
Dewpoint: 9.0°C (48°F) [RH = 59%]
Pressure (altimeter): 30.24 inches Hg (1024.0 mb)
Winds: from the E (80 degrees) at 25 MPH (22 knots; 11.3 m/s)
Visibility: 6 or more miles (10+ km)
Ceiling: at least 12,000 feet AGL
Clouds: few clouds at 1400 feet AGL
scattered clouds at 3200 feet AGL
Weather: no significant weather observed at this time

METAR text: LXGB 201350Z 08022KT 9999 FEW014 SCT032 BKN050 16/08 Q1024 BLU TEMPO 10022G32KT BLU
Conditions at: LXGB (GIBRALTAR (CIV/M, GI) observed 1350 UTC 20 March 2019
Temperature: 16.0°C (61°F)
Dewpoint: 8.0°C (46°F) [RH = 59%]
Pressure (altimeter): 30.24 inches Hg (1024.0 mb)
Winds: from the E (80 degrees) at 25 MPH (22 knots; 11.3 m/s)
Visibility: 6 or more miles (10+ km)
Ceiling: 5000 feet AGL
Clouds: few clouds at 1400 feet AGL
scattered clouds at 3200 feet AGL
broken clouds at 5000 feet AGL
Weather: no significant weather observed at this time

METAR text: LXGB 201250Z 09020KT 9999 FEW014 SCT034 BKN060 17/08 Q1025 TEMPO 10022G32KT
Conditions at: LXGB (GIBRALTAR (CIV/M, GI) observed 1250 UTC 20 March 2019
Temperature: 17.0°C (63°F)
Dewpoint: 8.0°C (46°F) [RH = 55%]
Pressure (altimeter): 30.27 inches Hg (1025.0 mb)
Winds: from the E (90 degrees) at 23 MPH (20 knots; 10.3 m/s)
Visibility: 6 or more miles (10+ km)
Ceiling: 6000 feet AGL
Clouds: few clouds at 1400 feet AGL
scattered clouds at 3400 feet AGL
broken clouds at 6000 feet AGL
Weather: no significant weather observed at this time

METAR text: LXGB 201150Z 10022G32KT 9999 FEW014 SCT033 BKN050 16/07 Q1025 NOSIG
Conditions at: LXGB (GIBRALTAR (CIV/M, GI) observed 1150 UTC 20 March 2019
Temperature: 16.0°C (61°F)
Dewpoint: 7.0°C (45°F) [RH = 55%]
Pressure (altimeter): 30.27 inches Hg (1025.0 mb)
Winds: from the E (100 degrees) at 25 MPH (22 knots; 11.3 m/s)
gusting to 37 MPH (32 knots; 16.5 m/s)
Visibility: 6 or more miles (10+ km)
Ceiling: 5000 feet AGL
Clouds: few clouds at 1400 feet AGL
scattered clouds at 3300 feet AGL
broken clouds at 5000 feet AGL
Weather: no significant weather observed at this time

METAR text: LXGB 201050Z 10019KT 9999 BKN032 16/07 Q1025 BLU TEMPO 10022G32KT BLU
Conditions at: LXGB (GIBRALTAR (CIV/M, GI) observed 1050 UTC 20 March 2019
Temperature: 16.0°C (61°F)
Dewpoint: 7.0°C (45°F) [RH = 55%]
Pressure (altimeter): 30.27 inches Hg (1025.0 mb)
Winds: from the E (100 degrees) at 22 MPH (19 knots; 9.8 m/s)
Visibility: 6 or more miles (10+ km)
Ceiling: 3200 feet AGL
Clouds: broken clouds at 3200 feet AGL
Weather: no significant weather observed at this time

METAR text: LXGB 200950Z 09022KT 9999 SCT033 SCT070 16/07 Q1025 NOSIG
Conditions at: LXGB (GIBRALTAR (CIV/M, GI) observed 0950 UTC 20 March 2019
Temperature: 16.0°C (61°F)
Dewpoint: 7.0°C (45°F) [RH = 55%]
Pressure (altimeter): 30.27 inches Hg (1025.0 mb)
Winds: from the E (90 degrees) at 25 MPH (22 knots; 11.3 m/s)
Visibility: 6 or more miles (10+ km)
Ceiling: at least 12,000 feet AGL
Clouds: scattered clouds at 3300 feet AGL
scattered clouds at 7000 feet AGL
Weather: no significant weather observed at this time

METAR text: LXGB 200850Z 10021KT 9999 SCT032 16/08 Q1024 NOSIG
Conditions at: LXGB (GIBRALTAR (CIV/M, GI) observed 0850 UTC 20 March 2019
Temperature: 16.0°C (61°F)
Dewpoint: 8.0°C (46°F) [RH = 59%]
Pressure (altimeter): 30.24 inches Hg (1024.0 mb)
Winds: from the E (100 degrees) at 24 MPH (21 knots; 10.8 m/s)
Visibility: 6 or more miles (10+ km)
Ceiling: at least 12,000 feet AGL
Clouds: scattered clouds at 3200 feet AGL
Weather: no significant weather observed at this time

METAR text: LXGB 200750Z 09022KT 9999 SCT030 SCT060 16/08 Q1024 NOSIG
Conditions at: LXGB (GIBRALTAR (CIV/M, GI) observed 0750 UTC 20 March 2019
Temperature: 16.0°C (61°F)
Dewpoint: 8.0°C (46°F) [RH = 59%]
Pressure (altimeter): 30.24 inches Hg (1024.0 mb)
Winds: from the E (90 degrees) at 25 MPH (22 knots; 11.3 m/s)
Visibility: 6 or more miles (10+ km)
Ceiling: at least 12,000 feet AGL
Clouds: scattered clouds at 3000 feet AGL
scattered clouds at 6000 feet AGL
Weather: no significant weather observed at this time

METAR text: LXGB 200650Z 09019KT 9999 SCT030 BKN050 15/09 Q1023 NOSIG
Conditions at: LXGB (GIBRALTAR (CIV/M, GI) observed 0650 UTC 20 March 2019
Temperature: 15.0°C (59°F)
Dewpoint: 9.0°C (48°F) [RH = 67%]
Pressure (altimeter): 30.21 inches Hg (1023.0 mb)
Winds: from the E (90 degrees) at 22 MPH (19 knots; 9.8 m/s)
Visibility: 6 or more miles (10+ km)
Ceiling: 5000 feet AGL
Clouds: scattered clouds at 3000 feet AGL
broken clouds at 5000 feet AGL
Weather: no significant weather observed at this time

METAR text: LXGB 200550Z 09021KT 9999 SCT027 BKN050 15/09 Q1023
Conditions at: LXGB (GIBRALTAR (CIV/M, GI) observed 0550 UTC 20 March 2019
Temperature: 15.0°C (59°F)
Dewpoint: 9.0°C (48°F) [RH = 67%]
Pressure (altimeter): 30.21 inches Hg (1023.0 mb)
Winds: from the E (90 degrees) at 24 MPH (21 knots; 10.8 m/s)
Visibility: 6 or more miles (10+ km)
Ceiling: 5000 feet AGL
Clouds: scattered clouds at 2700 feet AGL
broken clouds at 5000 feet AGL
Weather: no significant weather observed at this time

METAR text: LXGB 200450Z AUTO 09025KT 9999 // FEW027/// BKN050/// 15/10 Q1023
Conditions at: LXGB (GIBRALTAR (CIV/M, GI) observed 0450 UTC 20 March 2019
Temperature: 15.0°C (59°F)
Dewpoint: 10.0°C (50°F) [RH = 72%]
Pressure (altimeter): 30.21 inches Hg (1023.0 mb)
Winds: from the E (90 degrees) at 29 MPH (25 knots; 12.9 m/s)
Visibility: 6 or more miles (10+ km)
Ceiling: 5000 feet AGL
Clouds: few clouds at 2700 feet AGL
broken clouds at 5000 feet AGL
Weather: no significant weather observed at this time

METAR text: LXGB 200350Z AUTO 09027KT 9999 // SCT031/// BKN050/// 15/09 Q1023
Conditions at: LXGB (GIBRALTAR (CIV/M, GI) observed 0350 UTC 20 March 2019
Temperature: 15.0°C (59°F)
Dewpoint: 9.0°C (48°F) [RH = 67%]
Pressure (altimeter): 30.21 inches Hg (1023.0 mb)
Winds: from the E (90 degrees) at 31 MPH (27 knots; 13.9 m/s)
Visibility: 6 or more miles (10+ km)
Ceiling: 5000 feet AGL
Clouds: scattered clouds at 3100 feet AGL
broken clouds at 5000 feet AGL
Weather: no significant weather observed at this time

METAR text: LXGB 200250Z AUTO 10025KT 9999 // FEW026/// BKN050/// 16/10 Q1023
Conditions at: LXGB (GIBRALTAR (CIV/M, GI) observed 0250 UTC 20 March 2019
Temperature: 16.0°C (61°F)
Dewpoint: 10.0°C (50°F) [RH = 68%]
Pressure (altimeter): 30.21 inches Hg (1023.0 mb)
Winds: from the E (100 degrees) at 29 MPH (25 knots; 12.9 m/s)
Visibility: 6 or more miles (10+ km)
Ceiling: 5000 feet AGL
Clouds: few clouds at 2600 feet AGL
broken clouds at 5000 feet AGL
Weather: no significant weather observed at this time

METAR text: LXGB 200150Z AUTO 09023KT 9999 // FEW022/// BKN043/// 16/11 Q1023
Conditions at: LXGB (GIBRALTAR (CIV/M, GI) observed 0150 UTC 20 March 2019
Temperature: 16.0°C (61°F)
Dewpoint: 11.0°C (52°F) [RH = 72%]
Pressure (altimeter): 30.21 inches Hg (1023.0 mb)
Winds: from the E (90 degrees) at 26 MPH (23 knots; 11.8 m/s)
Visibility: 6 or more miles (10+ km)
Ceiling: 4300 feet AGL
Clouds: few clouds at 2200 feet AGL
broken clouds at 4300 feet AGL
Weather: no significant weather observed at this time

METAR text: LXGB 200050Z AUTO 09021KT 9999 // FEW023/// BKN050/// 16/12 Q1023
Conditions at: LXGB (GIBRALTAR (CIV/M, GI) observed 0050 UTC 20 March 2019
Temperature: 16.0°C (61°F)
Dewpoint: 12.0°C (54°F) [RH = 77%]
Pressure (altimeter): 30.21 inches Hg (1023.0 mb)
Winds: from the E (90 degrees) at 24 MPH (21 knots; 10.8 m/s)
Visibility: 6 or more miles (10+ km)
Ceiling: 5000 feet AGL
Clouds: few clouds at 2300 feet AGL
broken clouds at 5000 feet AGL
Weather: no significant weather observed at this time

METAR text: LXGB 192350Z AUTO 10020KT 9999 // SCT045/// 16/12 Q1023
Conditions at: LXGB (GIBRALTAR (CIV/M, GI) observed 2350 UTC 19 March 2019
Temperature: 16.0°C (61°F)
Dewpoint: 12.0°C (54°F) [RH = 77%]
Pressure (altimeter): 30.21 inches Hg (1023.0 mb)
Winds: from the E (100 degrees) at 23 MPH (20 knots; 10.3 m/s)
Visibility: 6 or more miles (10+ km)
Ceiling: at least 12,000 feet AGL
Clouds: scattered clouds at 4500 feet AGL
Weather: no significant weather observed at this time

METAR text: LXGB 192250Z AUTO 10020KT 9999 // FEW036/// SCT045/// 16/12 Q1024
Conditions at: LXGB (GIBRALTAR (CIV/M, GI) observed 2250 UTC 19 March 2019
Temperature: 16.0°C (61°F)
Dewpoint: 12.0°C (54°F) [RH = 77%]
Pressure (altimeter): 30.24 inches Hg (1024.0 mb)
Winds: from the E (100 degrees) at 23 MPH (20 knots; 10.3 m/s)
Visibility: 6 or more miles (10+ km)
Ceiling: at least 12,000 feet AGL
Clouds: few clouds at 3600 feet AGL
scattered clouds at 4500 feet AGL
Weather: no significant weather observed at this time

METAR text: LXGB 192150Z AUTO 09019KT 9999 // FEW033/// BKN039/// 16/12 Q1023
Conditions at: LXGB (GIBRALTAR (CIV/M, GI) observed 2150 UTC 19 March 2019
Temperature: 16.0°C (61°F)
Dewpoint: 12.0°C (54°F) [RH = 77%]
Pressure (altimeter): 30.21 inches Hg (1023.0 mb)
Winds: from the E (90 degrees) at 22 MPH (19 knots; 9.8 m/s)
Visibility: 6 or more miles (10+ km)
Ceiling: 3900 feet AGL
Clouds: few clouds at 3300 feet AGL
broken clouds at 3900 feet AGL
Weather: no significant weather observed at this time

METAR text: LXGB 192050Z AUTO 08018KT 9999 // SCT015/// 16/12 Q1023
Conditions at: LXGB (GIBRALTAR (CIV/M, GI) observed 2050 UTC 19 March 2019
Temperature: 16.0°C (61°F)
Dewpoint: 12.0°C (54°F) [RH = 77%]
Pressure (altimeter): 30.21 inches Hg (1023.0 mb)
Winds: from the E (80 degrees) at 21 MPH (18 knots; 9.3 m/s)
Visibility: 6 or more miles (10+ km)
Ceiling: at least 12,000 feet AGL
Clouds: scattered clouds at 1500 feet AGL
Weather: no significant weather observed at this time

METAR text: LXGB 191950Z 08008KT 9999 FEW012 SCT250 16/13 Q1022 NOSIG
Conditions at: LXGB (GIBRALTAR (CIV/M, GI) observed 1950 UTC 19 March 2019
Temperature: 16.0°C (61°F)
Dewpoint: 13.0°C (55°F) [RH = 82%]
Pressure (altimeter): 30.18 inches Hg (1022.0 mb)
Winds: from the E (80 degrees) at 9 MPH (8 knots; 4.1 m/s)
Visibility: 6 or more miles (10+ km)
Ceiling: at least 12,000 feet AGL
Clouds: few clouds at 1200 feet AGL
scattered clouds at 25000 feet AGL
Weather: no significant weather observed at this time

METAR text: LXGB 191850Z 09007KT 9999 FEW030 16/13 Q1021 NOSIG
Conditions at: LXGB (GIBRALTAR (CIV/M, GI) observed 1850 UTC 19 March 2019
Temperature: 16.0°C (61°F)
Dewpoint: 13.0°C (55°F) [RH = 82%]
Pressure (altimeter): 30.15 inches Hg (1021.0 mb)
Winds: from the E (90 degrees) at 8 MPH (7 knots; 3.6 m/s)
Visibility: 6 or more miles (10+ km)
Ceiling: at least 12,000 feet AGL
Clouds: few clouds at 3000 feet AGL
Weather: no significant weather observed at this time

METAR text: LXGB 191750Z 14002KT 9999 FEW030 18/11 Q1020 NOSIG
Conditions at: LXGB (GIBRALTAR (CIV/M, GI) observed 1750 UTC 19 March 2019
Temperature: 18.0°C (64°F)
Dewpoint: 11.0°C (52°F) [RH = 64%]
Pressure (altimeter): 30.12 inches Hg (1020.0 mb)
Winds: from the SE (140 degrees) at 2 MPH (2 knots; 1.0 m/s)
Visibility: 6 or more miles (10+ km)
Ceiling: at least 12,000 feet AGL
Clouds: few clouds at 3000 feet AGL
Weather: no significant weather observed at this time

METAR text: LXGB 191650Z 17004KT 9999 FEW030 19/11 Q1019 NOSIG
Conditions at: LXGB (GIBRALTAR (CIV/M, GI) observed 1650 UTC 19 March 2019
Temperature: 19.0°C (66°F)
Dewpoint: 11.0°C (52°F) [RH = 60%]
Pressure (altimeter): 30.09 inches Hg (1019.0 mb)
Winds: from the S (170 degrees) at 5 MPH (4 knots; 2.1 m/s)
Visibility: 6 or more miles (10+ km)
Ceiling: at least 12,000 feet AGL
Clouds: few clouds at 3000 feet AGL
Weather: no significant weather observed at this time

METAR text: LXGB 191550Z 09002KT 9999 FEW030 19/11 Q1019 NOSIG
Conditions at: LXGB (GIBRALTAR (CIV/M, GI) observed 1550 UTC 19 March 2019
Temperature: 19.0°C (66°F)
Dewpoint: 11.0°C (52°F) [RH = 60%]
Pressure (altimeter): 30.09 inches Hg (1019.0 mb)
Winds: from the E (90 degrees) at 2 MPH (2 knots; 1.0 m/s)
Visibility: 6 or more miles (10+ km)
Ceiling: at least 12,000 feet AGL
Clouds: few clouds at 3000 feet AGL
Weather: no significant weather observed at this time

METAR text: LXGB 191450Z 21006KT 9999 FEW030 18/12 Q1020 NOSIG
Conditions at: LXGB (GIBRALTAR (CIV/M, GI) observed 1450 UTC 19 March 2019
Temperature: 18.0°C (64°F)
Dewpoint: 12.0°C (54°F) [RH = 68%]
Pressure (altimeter): 30.12 inches Hg (1020.0 mb)
Winds: from the SSW (210 degrees) at 7 MPH (6 knots; 3.1 m/s)
Visibility: 6 or more miles (10+ km)
Ceiling: at least 12,000 feet AGL
Clouds: few clouds at 3000 feet AGL
Weather: no significant weather observed at this time

METAR text: LXGB 191350Z 12006KT 9999 FEW030 19/10 Q1020 NOSIG
Conditions at: LXGB (GIBRALTAR (CIV/M, GI) observed 1350 UTC 19 March 2019
Temperature: 19.0°C (66°F)
Dewpoint: 10.0°C (50°F) [RH = 56%]
Pressure (altimeter): 30.12 inches Hg (1020.0 mb)
Winds: from the ESE (120 degrees) at 7 MPH (6 knots; 3.1 m/s)
Visibility: 6 or more miles (10+ km)
Ceiling: at least 12,000 feet AGL
Clouds: few clouds at 3000 feet AGL
Weather: no significant weather observed at this time

METAR text: LXGB 191250Z 10009KT 9999 FEW022 18/11 Q1021 NOSIG
Conditions at: LXGB (GIBRALTAR (CIV/M, GI) observed 1250 UTC 19 March 2019
Temperature: 18.0°C (64°F)
Dewpoint: 11.0°C (52°F) [RH = 64%]
Pressure (altimeter): 30.15 inches Hg (1021.0 mb)
Winds: from the E (100 degrees) at 10 MPH (9 knots; 4.6 m/s)
Visibility: 6 or more miles (10+ km)
Ceiling: at least 12,000 feet AGL
Clouds: few clouds at 2200 feet AGL
Weather: no significant weather observed at this time

METAR text: LXGB 191150Z 08008KT 9999 FEW020 17/12 Q1022 NOSIG
Conditions at: LXGB (GIBRALTAR (CIV/M, GI) observed 1150 UTC 19 March 2019
Temperature: 17.0°C (63°F)
Dewpoint: 12.0°C (54°F) [RH = 72%]
Pressure (altimeter): 30.18 inches Hg (1022.0 mb)
Winds: from the E (80 degrees) at 9 MPH (8 knots; 4.1 m/s)
Visibility: 6 or more miles (10+ km)
Ceiling: at least 12,000 feet AGL
Clouds: few clouds at 2000 feet AGL
Weather: no significant weather observed at this time

METAR text: LXGB 191050Z 06008KT 9999 FEW016 SCT022 17/12 Q1022 BECMG FEW022
Conditions at: LXGB (GIBRALTAR (CIV/M, GI) observed 1050 UTC 19 March 2019
Temperature: 17.0°C (63°F)
Dewpoint: 12.0°C (54°F) [RH = 72%]
Pressure (altimeter): 30.18 inches Hg (1022.0 mb)
Winds: from the ENE (60 degrees) at 9 MPH (8 knots; 4.1 m/s)
Visibility: 6 or more miles (10+ km)
Ceiling: at least 12,000 feet AGL
Clouds: few clouds at 1600 feet AGL
scattered clouds at 2200 feet AGL
Weather: no significant weather observed at this time

METAR text: LXGB 190950Z 07008KT 9999 FEW015 BKN022 17/12 Q1022 BECMG SCT025
Conditions at: LXGB (GIBRALTAR (CIV/M, GI) observed 0950 UTC 19 March 2019
Temperature: 17.0°C (63°F)
Dewpoint: 12.0°C (54°F) [RH = 72%]
Pressure (altimeter): 30.18 inches Hg (1022.0 mb)
Winds: from the ENE (70 degrees) at 9 MPH (8 knots; 4.1 m/s)
Visibility: 6 or more miles (10+ km)
Ceiling: 2200 feet AGL
Clouds: few clouds at 1500 feet AGL
broken clouds at 2200 feet AGL
Weather: no significant weather observed at this time

METAR text: LXGB 190850Z 08009KT 9999 FEW015 SCT023 17/12 Q1022 WHT BECMG SCT025 BLU
Conditions at: LXGB (GIBRALTAR (CIV/M, GI) observed 0850 UTC 19 March 2019
Temperature: 17.0°C (63°F)
Dewpoint: 12.0°C (54°F) [RH = 72%]
Pressure (altimeter): 30.18 inches Hg (1022.0 mb)
Winds: from the E (80 degrees) at 10 MPH (9 knots; 4.6 m/s)
Visibility: 6 or more miles (10+ km)
Ceiling: at least 12,000 feet AGL
Clouds: few clouds at 1500 feet AGL
scattered clouds at 2300 feet AGL
Weather: no significant weather observed at this time

METAR text: LXGB 190750Z 09010KT 9999 FEW015 SCT025 16/12 Q1022 BLU NOSIG
Conditions at: LXGB (GIBRALTAR (CIV/M, GI) observed 0750 UTC 19 March 2019
Temperature: 16.0°C (61°F)
Dewpoint: 12.0°C (54°F) [RH = 77%]
Pressure (altimeter): 30.18 inches Hg (1022.0 mb)
Winds: from the E (90 degrees) at 12 MPH (10 knots; 5.1 m/s)
Visibility: 6 or more miles (10+ km)
Ceiling: at least 12,000 feet AGL
Clouds: few clouds at 1500 feet AGL
scattered clouds at 2500 feet AGL
Weather: no significant weather observed at this time

METAR text: LXGB 190650Z 08010KT 9999 SCT015 BKN021 15/13 Q1021
Conditions at: LXGB (GIBRALTAR (CIV/M, GI) observed 0650 UTC 19 March 2019
Temperature: 15.0°C (59°F)
Dewpoint: 13.0°C (55°F) [RH = 88%]
Pressure (altimeter): 30.15 inches Hg (1021.0 mb)
Winds: from the E (80 degrees) at 12 MPH (10 knots; 5.1 m/s)
Visibility: 6 or more miles (10+ km)
Ceiling: 2100 feet AGL
Clouds: scattered clouds at 1500 feet AGL
broken clouds at 2100 feet AGL
Weather: no significant weather observed at this time

METAR text: LXGB 190550Z 08010KT 9999 FEW012 BKN018 BKN040 15/13 Q1021
Conditions at: LXGB (GIBRALTAR (CIV/M, GI) observed 0550 UTC 19 March 2019
Temperature: 15.0°C (59°F)
Dewpoint: 13.0°C (55°F) [RH = 88%]
Pressure (altimeter): 30.15 inches Hg (1021.0 mb)
Winds: from the E (80 degrees) at 12 MPH (10 knots; 5.1 m/s)
Visibility: 6 or more miles (10+ km)
Ceiling: 1800 feet AGL
Clouds: few clouds at 1200 feet AGL
broken clouds at 1800 feet AGL
broken clouds at 4000 feet AGL
Weather: no significant weather observed at this time

METAR text: LXGB 190450Z AUTO 08014KT 9999 // SCT012/// BKN046/// 16/13 Q1021
Conditions at: LXGB (GIBRALTAR (CIV/M, GI) observed 0450 UTC 19 March 2019
Temperature: 16.0°C (61°F)
Dewpoint: 13.0°C (55°F) [RH = 82%]
Pressure (altimeter): 30.15 inches Hg (1021.0 mb)
Winds: from the E (80 degrees) at 16 MPH (14 knots; 7.2 m/s)
Visibility: 6 or more miles (10+ km)
Ceiling: 4600 feet AGL
Clouds: scattered clouds at 1200 feet AGL
broken clouds at 4600 feet AGL
Weather: no significant weather observed at this time

METAR text: LXGB 190350Z AUTO 08013KT 9000 // FEW013/// BKN050/// 16/13 Q1021
Conditions at: LXGB (GIBRALTAR (CIV/M, GI) observed 0350 UTC 19 March 2019
Temperature: 16.0°C (61°F)
Dewpoint: 13.0°C (55°F) [RH = 82%]
Pressure (altimeter): 30.15 inches Hg (1021.0 mb)
Winds: from the E (80 degrees) at 15 MPH (13 knots; 6.7 m/s)
Visibility: 6 miles ( 9 km)
Ceiling: 5000 feet AGL
Clouds: few clouds at 1300 feet AGL
broken clouds at 5000 feet AGL
Weather: no significant weather observed at this time

Forecast for: LXGB (GIBRALTAR (CIV/M, GI)
Text: TAF LXGB 201345Z 2015/2023 09018G28KT 9999 FEW014 SCT030
Forecast period: 1500 to 2300 UTC 20 March 2019
Forecast type: FROM: standard forecast or significant change
Winds: from the E (90 degrees) at 21 MPH (18 knots; 9.3 m/s)
gusting to 32 MPH (28 knots; 14.4 m/s)
Visibility: 6 or more miles 10+ km)
Ceiling: at least 12,000 feet AGL
Clouds: few clouds at 1400 feet AGL
scattered clouds at 3000 feet AGL
Weather: no significant weather forecast for this period
Text: TEMPO 2015/2018 10022G34KT 530002
Forecast period: 1500 to 1800 UTC 20 March 2019
Forecast type: TEMPORARY: The following changes expected for less than half the time period
Winds: from the E (100 degrees) at 25 MPH (22 knots; 11.3 m/s)
gusting to 39 MPH (34 knots; 17.5 m/s)
Visibility: missing
Ceiling: unknown
Clouds: missing
Weather: no significant weather forecast for this period